Terminal Aerodrome Forecast
Issued by NWS

Home | Current Version | Previous Version | Text Only | Print | Product List | Glossary On
Versions: 1 2 3 4 5 6 7 8 9 10 11 12 13 14 15 16 17 18 19 20 21 22 23 24 25
000
FTUS41 KCAR 042355
TAFHUL
TAF
KHUL 042355Z 0500/0524 25010KT P6SM SCT045
     FM050500 28010KT P6SM -SN SCT025 OVC040
     FM051000 30010G20KT P6SM SCT030
     FM051400 31012G22KT P6SM SCT100=

USA.gov is the U.S. government's official web portal to all federal, state and local government web resources and services.